createdAt,value
2022-12-03T00:04:25.917Z,102495.19
2022-12-03T00:09:27.590Z,102492.16
2022-12-03T00:14:29.145Z,102496.06
2022-12-03T00:19:31.013Z,102492.78
2022-12-03T00:24:32.753Z,102492.66
2022-12-03T00:29:34.619Z,102485.78
2022-12-03T00:34:36.730Z,102491.88
2022-12-03T00:39:38.277Z,102492.66
2022-12-03T00:44:39.922Z,102489.63
2022-12-03T00:49:41.500Z,102494.41
2022-12-03T00:54:43.145Z,102487.84
2022-12-03T00:59:44.689Z,102499.03
2022-12-03T01:04:46.319Z,102503.19
2022-12-03T01:09:47.995Z,102497.53
2022-12-03T01:14:52.654Z,102495.75
2022-12-03T01:19:54.498Z,102487.38
2022-12-03T01:24:56.336Z,102499.28
2022-12-03T01:29:57.888Z,102495.00
2022-12-03T01:34:59.425Z,102489.63
2022-12-03T01:40:01.030Z,102493.94
2022-12-03T01:45:03.962Z,102484.41
2022-12-03T01:50:08.497Z,102481.13
2022-12-03T01:55:16.537Z,102481.72
2022-12-03T02:00:21.601Z,102487.09
2022-12-03T02:05:28.895Z,102480.97
2022-12-03T02:10:37.570Z,102472.47
2022-12-03T02:15:40.217Z,102466.25
2022-12-03T02:21:20.675Z,102463.22
2022-12-03T02:26:22.331Z,102456.72
2022-12-03T02:31:24.285Z,102455.53
2022-12-03T02:36:27.423Z,102442.09
2022-12-03T02:47:59.855Z,102427.53
2022-12-03T02:53:04.888Z,102431.13
2022-12-03T02:58:07.304Z,102422.97
2022-12-03T03:03:09.412Z,102420.13
2022-12-03T03:08:11.844Z,102429.09
2022-12-03T03:13:16.196Z,102440.13
2022-12-03T03:18:18.852Z,102441.91
2022-12-03T03:23:22.740Z,102444.47
2022-12-03T03:28:25.522Z,102444.03
2022-12-03T03:33:27.655Z,102449.72
2022-12-03T03:38:30.370Z,102454.78
2022-12-03T03:43:34.889Z,102453.91
2022-12-03T03:48:38.712Z,102451.50
2022-12-03T03:53:43.553Z,102468.41
2022-12-03T03:58:45.441Z,102464.13
2022-12-03T04:03:47.051Z,102462.59
2022-12-03T04:08:48.721Z,102461.72
2022-12-03T04:13:50.319Z,102469.19
2022-12-03T04:18:52.150Z,102466.50
2022-12-03T04:23:53.763Z,102472.47
2022-12-03T04:28:55.377Z,102475.16
2022-12-03T04:34:15.646Z,102473.22
2022-12-03T04:39:17.225Z,102472.19
2022-12-03T04:44:36.151Z,102473.97
2022-12-03T04:49:48.083Z,102476.22
2022-12-03T04:54:49.667Z,102478.75
2022-12-03T04:59:51.224Z,102485.59
2022-12-03T05:04:53.056Z,102482.31
2022-12-03T05:09:54.652Z,102488.31
2022-12-03T05:14:56.548Z,102480.53
2022-12-03T05:20:16.966Z,102487.69
2022-12-03T05:25:18.619Z,102478.75
2022-12-03T05:30:23.227Z,102481.75
2022-12-03T05:35:25.191Z,102480.53
2022-12-03T05:40:26.859Z,102471.63
2022-12-03T05:45:34.974Z,102469.84
2022-12-03T05:50:41.031Z,102471.91
2022-12-03T05:55:51.340Z,102475.03
2022-12-03T06:00:53.253Z,102482.06
2022-12-03T06:05:54.762Z,102474.59
2022-12-03T06:10:56.321Z,102477.00
2022-12-03T06:15:58.248Z,102472.38
2022-12-03T06:20:59.793Z,102472.56
2022-12-03T06:26:01.420Z,102477.63
2022-12-03T06:31:03.538Z,102479.69
2022-12-03T06:36:08.194Z,102471.69
2022-12-03T06:41:09.736Z,102473.53
2022-12-03T06:46:11.296Z,102470.25
2022-12-03T06:51:13.064Z,102460.38
2022-12-03T06:56:17.810Z,102462.47
2022-12-03T07:01:21.739Z,102455.16
2022-12-03T07:06:23.289Z,102453.84
2022-12-03T07:11:39.967Z,102450.84
2022-12-03T07:16:43.434Z,102454.88
2022-12-03T07:21:45.194Z,102462.22
2022-12-03T07:26:46.742Z,102465.78
2022-12-03T07:31:48.411Z,102477.09
2022-12-03T07:36:50.097Z,102483.97
2022-12-03T07:41:51.752Z,102481.16
2022-12-03T07:46:54.587Z,102481.31
2022-12-03T07:51:57.234Z,102478.63
2022-12-03T07:57:01.675Z,102478.03
2022-12-03T08:02:16.816Z,102476.09
2022-12-03T08:07:22.778Z,102462.94
2022-12-03T08:12:40.155Z,102460.59
2022-12-03T08:17:42.956Z,102458.94
2022-12-03T08:22:47.926Z,102454.97
2022-12-03T08:27:57.354Z,102449.72
2022-12-03T08:32:59.424Z,102447.53
2022-12-03T08:38:12.965Z,102456.13
2022-12-03T08:43:27.533Z,102455.97
2022-12-03T08:48:55.527Z,102449.72
2022-12-03T08:54:07.650Z,102451.84
2022-12-03T08:59:32.062Z,102443.34
2022-12-03T09:04:40.312Z,102442.16
2022-12-03T09:09:42.032Z,102429.81
2022-12-03T09:14:43.539Z,102441.59
2022-12-03T09:19:46.582Z,102453.03
2022-12-03T09:24:48.433Z,102467.06
2022-12-03T09:29:50.573Z,102471.84
2022-12-03T09:34:54.961Z,102475.41
2022-12-03T09:39:56.678Z,102484.63
2022-12-03T09:44:58.695Z,102483.16
2022-12-03T09:50:00.550Z,102481.97
2022-12-03T09:55:15.076Z,102478.25
2022-12-03T10:00:19.904Z,102477.53
2022-12-03T10:05:22.595Z,102478.09
2022-12-03T10:10:25.263Z,102476.34
2022-12-03T10:15:27.252Z,102485.88
2022-12-03T10:20:28.933Z,102492.13
2022-12-03T10:25:30.444Z,102492.09
2022-12-03T10:30:32.783Z,102481.97
2022-12-03T10:35:41.239Z,102478.69
2022-12-03T10:40:42.869Z,102483.91
2022-12-03T10:45:49.646Z,102479.72
2022-12-03T10:51:03.915Z,102472.72
2022-12-03T10:56:07.552Z,102470.94
2022-12-03T11:01:21.872Z,102469.16
2022-12-03T11:06:23.828Z,102459.63
2022-12-03T11:11:28.113Z,102445.78
2022-12-03T11:16:41.908Z,102453.69
2022-12-03T11:22:17.643Z,102445.91
2022-12-03T11:27:20.811Z,102440.09
2022-12-03T11:32:37.729Z,102435.00
2022-12-03T11:37:39.319Z,102425.47
2022-12-03T11:42:41.080Z,102410.09
2022-12-03T11:48:15.086Z,102404.38
2022-12-03T11:53:23.980Z,102395.00
2022-12-03T11:58:58.540Z,102383.44
2022-12-03T12:04:00.681Z,102370.78
2022-12-03T12:09:03.947Z,102358.91
2022-12-03T12:14:13.111Z,102363.44
2022-12-03T12:19:43.576Z,102344.41
2022-12-03T12:24:52.652Z,102330.88
2022-12-03T12:29:57.141Z,102331.72
2022-12-03T12:35:21.539Z,102327.16
2022-12-03T12:40:26.855Z,102324.59
2022-12-03T12:45:35.620Z,102322.22
2022-12-03T12:50:37.732Z,102309.56
2022-12-03T12:55:39.832Z,102313.91
2022-12-03T13:00:41.851Z,102305.41
2022-12-03T13:05:47.029Z,102306.28
2022-12-03T13:10:49.827Z,102303.19
2022-12-03T13:15:59.457Z,102291.47
2022-12-03T13:21:19.173Z,102297.38
2022-12-03T13:31:56.322Z,102279.66
2022-12-03T13:37:01.227Z,102271.25
2022-12-03T13:42:33.849Z,102262.91
2022-12-03T13:47:37.449Z,102253.84
2022-12-03T13:52:40.080Z,102255.38
2022-12-03T13:57:41.894Z,102259.22
2022-12-03T14:02:43.798Z,102258.78
2022-12-03T14:07:48.596Z,102257.06
2022-12-03T14:12:50.233Z,102258.97
2022-12-03T14:17:52.541Z,102251.69
2022-12-03T14:22:59.023Z,102250.81
2022-12-03T14:28:08.743Z,102246.69
2022-12-03T14:33:10.289Z,102244.59
2022-12-03T14:38:17.906Z,102234.47
2022-12-03T14:43:19.414Z,102234.47
2022-12-03T14:48:20.993Z,102231.69
2022-12-03T14:53:27.080Z,102242.88
2022-12-03T14:58:29.157Z,102241.13
2022-12-03T15:03:30.719Z,102244.94
2022-12-03T15:08:32.409Z,102248.22
2022-12-03T15:13:35.037Z,102249.72
2022-12-03T15:18:42.668Z,102249.09
2022-12-03T15:23:44.203Z,102237.81
2022-12-03T15:28:48.534Z,102243.78
2022-12-03T15:33:50.181Z,102242.31
2022-12-03T15:38:54.864Z,102254.34
2022-12-03T15:43:58.946Z,102244.56
2022-12-03T15:49:00.665Z,102248.59
2022-12-03T15:54:02.255Z,102245.69
2022-12-03T15:59:04.874Z,102241.69
2022-12-03T16:04:06.394Z,102239.34
2022-12-03T16:09:11.077Z,102236.38
2022-12-03T16:14:12.654Z,102235.63
2022-12-03T16:19:14.389Z,102229.22
2022-12-03T16:24:18.751Z,102225.81
2022-12-03T16:29:20.309Z,102221.50
2022-12-03T16:34:21.896Z,102221.50
2022-12-03T16:39:23.565Z,102219.88
2022-12-03T16:44:54.302Z,102225.44
2022-12-03T16:49:58.151Z,102218.28
2022-12-03T16:54:59.757Z,102224.56
2022-12-03T17:00:01.485Z,102233.31
2022-12-03T17:05:03.672Z,102240.34
2022-12-03T17:10:06.062Z,102235.41
2022-12-03T17:15:22.766Z,102235.28
2022-12-03T17:20:24.490Z,102243.91
2022-12-03T17:25:27.010Z,102241.22
2022-12-03T17:30:28.672Z,102239.16
2022-12-03T17:35:30.298Z,102234.81
2022-12-03T17:40:31.863Z,102236.16
2022-12-03T17:45:33.359Z,102231.09
2022-12-03T17:50:35.370Z,102231.72
2022-12-03T17:55:44.261Z,102216.53
2022-12-03T18:00:51.225Z,102217.84
2022-12-03T18:05:55.302Z,102212.69
2022-12-03T18:10:56.849Z,102206.16
2022-12-03T18:15:58.496Z,102203.44
2022-12-03T18:21:02.220Z,102207.91
2022-12-03T18:26:04.656Z,102201.09
2022-12-03T18:31:16.718Z,102206.44
2022-12-03T18:36:25.812Z,102198.88
2022-12-03T18:41:27.751Z,102196.34
2022-12-03T18:46:52.472Z,102181.00
2022-12-03T18:51:55.998Z,102178.03
2022-12-03T18:57:00.792Z,102171.03
2022-12-03T19:02:02.605Z,102173.41
2022-12-03T19:07:04.791Z,102171.66
2022-12-03T19:12:12.843Z,102161.06
2022-12-03T19:17:16.060Z,102170.00
2022-12-03T19:22:17.604Z,102172.41
2022-12-03T19:27:19.371Z,102161.84
2022-12-03T19:32:20.998Z,102169.28
2022-12-03T19:37:24.620Z,102174.00
2022-12-03T19:42:28.656Z,102165.41
2022-12-03T19:47:32.737Z,102159.31
2022-12-03T19:52:35.480Z,102152.00
2022-12-03T19:57:36.986Z,102150.97
2022-12-03T20:02:38.596Z,102149.19
2022-12-03T20:07:47.064Z,102148.09
2022-12-03T20:12:48.820Z,102151.25
2022-12-03T20:17:50.535Z,102146.81
2022-12-03T20:22:52.063Z,102152.00
2022-12-03T20:27:56.330Z,102150.50
2022-12-03T20:32:57.863Z,102145.31
2022-12-03T20:37:59.482Z,102142.78
2022-12-03T20:43:01.022Z,102139.78
2022-12-03T20:48:02.583Z,102141.31
2022-12-03T20:53:23.840Z,102140.69
2022-12-03T20:58:26.336Z,102139.66
2022-12-03T21:03:27.904Z,102133.84
2022-12-03T21:08:40.968Z,102137.41
2022-12-03T21:13:44.567Z,102140.38
2022-12-03T21:18:46.422Z,102136.50
2022-12-03T21:23:48.011Z,102136.50
2022-12-03T21:28:52.308Z,102137.41
2022-12-03T21:33:55.189Z,102132.63
2022-12-03T21:38:56.758Z,102131.00
2022-12-03T21:43:58.847Z,102137.69
2022-12-03T21:49:02.557Z,102137.06
2022-12-03T21:54:15.519Z,102138.16
2022-12-03T21:59:17.223Z,102136.81
2022-12-03T22:04:19.758Z,102139.75
2022-12-03T22:09:26.279Z,102131.75
2022-12-03T22:14:28.913Z,102124.91
2022-12-03T22:19:30.559Z,102131.44
2022-12-03T22:24:32.058Z,102128.47
2022-12-03T22:29:33.617Z,102115.66
2022-12-03T22:34:35.458Z,102119.53
2022-12-03T22:40:02.642Z,102110.91
2022-12-03T22:45:08.627Z,102114.72
2022-12-03T22:50:10.456Z,102118.31
2022-12-03T22:55:12.001Z,102118.00
2022-12-03T23:00:15.359Z,102113.53
2022-12-03T23:05:16.950Z,102108.78
2022-12-03T23:10:18.548Z,102108.19
2022-12-03T23:15:20.090Z,102114.00
2022-12-03T23:20:22.060Z,102110.84
2022-12-03T23:25:23.594Z,102109.22
2022-12-03T23:30:25.133Z,102104.63
2022-12-03T23:35:26.627Z,102106.69
2022-12-03T23:40:28.178Z,102101.75
2022-12-03T23:45:29.779Z,102108.75
2022-12-03T23:50:31.562Z,102101.91
2022-12-03T23:55:33.672Z,102090.28
